Bethel, Delaware
Current Conditions -  °F | °C
As of 2:30 PM on Monday 22 Dec 2014 (Local Time) from KGED Reporting Station
Haze Haze  
Wind Chill: 36°   Ceiling: 900
Heat Index: 41°   Visibility: 5mi
Dew Point: 37°   Wind: 8mph
Humidity: 86%   Direction: 30°NNE
Pressure: 30.18"   Gusts: NA
Location:  38.57°N, 75.62°W
Report Text: KGED 221930Z AUTO 03007KT 5SM BR BKN009 OVC039 05/03 A3018 RMK AO2 RAE26 P0001 T00500028
Loading
Personal Weather Stations






























Interactive Weather Map New forecast layout! Learn more

10-Day Weather Forecast

Advertisements
Track Severe Weather on mobile